sensor_id;sensor_type;location;lat;lon;timestamp;pressure;altitude;pressure_sealevel;temperature;humidity
53246;BME280;39569;51.090;-1.786;2023-06-14T00:01:13;100924.22;;;26.36;36.06
53246;BME280;39569;51.090;-1.786;2023-06-14T00:03:40;100931.63;;;26.36;35.44
53246;BME280;39569;51.090;-1.786;2023-06-14T00:06:07;100934.34;;;26.36;35.74
53246;BME280;39569;51.090;-1.786;2023-06-14T00:08:34;100928.59;;;26.42;35.09
53246;BME280;39569;51.090;-1.786;2023-06-14T00:11:02;100933.00;;;26.43;35.41
53246;BME280;39569;51.090;-1.786;2023-06-14T00:13:28;100934.34;;;26.36;35.95
53246;BME280;39569;51.090;-1.786;2023-06-14T00:15:55;100943.38;;;26.26;35.35
53246;BME280;39569;51.090;-1.786;2023-06-14T00:18:22;100940.09;;;26.24;35.92
53246;BME280;39569;51.090;-1.786;2023-06-14T00:20:55;100944.47;;;26.20;35.63
53246;BME280;39569;51.090;-1.786;2023-06-14T00:23:22;100949.09;;;26.14;36.16
53246;BME280;39569;51.090;-1.786;2023-06-14T00:25:48;100946.94;;;26.11;35.62
53246;BME280;39569;51.090;-1.786;2023-06-14T00:28:16;100943.91;;;26.13;36.07
53246;BME280;39569;51.090;-1.786;2023-06-14T00:30:43;100944.47;;;26.10;35.71
53246;BME280;39569;51.090;-1.786;2023-06-14T00:33:11;100943.09;;;26.07;35.63
53246;BME280;39569;51.090;-1.786;2023-06-14T00:35:38;100938.38;;;26.03;35.88
53246;BME280;39569;51.090;-1.786;2023-06-14T00:38:05;100939.19;;;25.93;36.36
53246;BME280;39569;51.090;-1.786;2023-06-14T00:40:32;100952.84;;;25.88;36.33
53246;BME280;39569;51.090;-1.786;2023-06-14T00:43:00;100943.25;;;25.81;35.92
53246;BME280;39569;51.090;-1.786;2023-06-14T00:45:28;100944.06;;;25.71;36.65
53246;BME280;39569;51.090;-1.786;2023-06-14T00:47:57;100941.56;;;25.70;35.99
53246;BME280;39569;51.090;-1.786;2023-06-14T00:50:24;100939.66;;;25.70;35.90
53246;BME280;39569;51.090;-1.786;2023-06-14T00:52:51;100943.75;;;25.63;36.38
53246;BME280;39569;51.090;-1.786;2023-06-14T00:55:18;100940.16;;;25.57;36.43
53246;BME280;39569;51.090;-1.786;2023-06-14T00:57:45;100942.03;;;25.42;38.11
53246;BME280;39569;51.090;-1.786;2023-06-14T01:00:13;100938.72;;;25.40;37.23
53246;BME280;39569;51.090;-1.786;2023-06-14T01:02:41;100942.53;;;25.39;36.59
53246;BME280;39569;51.090;-1.786;2023-06-14T01:05:09;100945.72;;;25.20;35.95
53246;BME280;39569;51.090;-1.786;2023-06-14T01:07:46;100952.28;;;25.19;36.67
53246;BME280;39569;51.090;-1.786;2023-06-14T01:10:32;100947.84;;;25.13;36.68
53246;BME280;39569;51.090;-1.786;2023-06-14T01:13:06;100947.28;;;25.06;36.45
53246;BME280;39569;51.090;-1.786;2023-06-14T01:15:34;100947.91;;;24.77;37.09
53246;BME280;39569;51.090;-1.786;2023-06-14T01:18:03;100954.00;;;24.62;36.99
53246;BME280;39569;51.090;-1.786;2023-06-14T01:20:32;100953.50;;;24.65;37.45
53246;BME280;39569;51.090;-1.786;2023-06-14T01:23:03;100961.78;;;24.75;37.46
53246;BME280;39569;51.090;-1.786;2023-06-14T01:25:30;100959.59;;;24.72;37.77
53246;BME280;39569;51.090;-1.786;2023-06-14T01:27:59;100954.06;;;24.67;37.73
53246;BME280;39569;51.090;-1.786;2023-06-14T01:30:27;100960.28;;;24.58;37.61
53246;BME280;39569;51.090;-1.786;2023-06-14T01:32:56;100953.59;;;24.44;37.70
53246;BME280;39569;51.090;-1.786;2023-06-14T01:35:23;100955.09;;;24.29;37.92
53246;BME280;39569;51.090;-1.786;2023-06-14T01:37:51;100953.47;;;24.28;37.82
53246;BME280;39569;51.090;-1.786;2023-06-14T01:40:21;100956.09;;;24.18;37.76
53246;BME280;39569;51.090;-1.786;2023-06-14T01:42:49;100960.09;;;24.11;37.92
53246;BME280;39569;51.090;-1.786;2023-06-14T01:45:17;100955.91;;;24.03;38.29
53246;BME280;39569;51.090;-1.786;2023-06-14T01:47:45;100958.31;;;24.00;38.08
53246;BME280;39569;51.090;-1.786;2023-06-14T01:50:13;100956.06;;;23.92;38.16
53246;BME280;39569;51.090;-1.786;2023-06-14T01:52:40;100950.59;;;23.92;37.93
53246;BME280;39569;51.090;-1.786;2023-06-14T01:55:08;100954.03;;;23.82;38.36
53246;BME280;39569;51.090;-1.786;2023-06-14T01:57:36;100956.91;;;23.71;38.40
53246;BME280;39569;51.090;-1.786;2023-06-14T02:00:03;100942.16;;;23.72;37.87
53246;BME280;39569;51.090;-1.786;2023-06-14T02:02:31;100947.38;;;23.73;38.02
53246;BME280;39569;51.090;-1.786;2023-06-14T02:04:58;100946.81;;;23.71;37.97
53246;BME280;39569;51.090;-1.786;2023-06-14T02:07:25;100946.91;;;23.55;38.10
53246;BME280;39569;51.090;-1.786;2023-06-14T02:09:52;100942.50;;;23.54;37.86
53246;BME280;39569;51.090;-1.786;2023-06-14T02:12:19;100943.91;;;23.56;37.99
53246;BME280;39569;51.090;-1.786;2023-06-14T02:14:47;100947.13;;;23.53;37.98
53246;BME280;39569;51.090;-1.786;2023-06-14T02:17:14;100939.72;;;23.49;38.39
53246;BME280;39569;51.090;-1.786;2023-06-14T02:19:41;100937.81;;;23.49;38.17
53246;BME280;39569;51.090;-1.786;2023-06-14T02:22:08;100941.56;;;23.43;38.41
53246;BME280;39569;51.090;-1.786;2023-06-14T02:24:34;100942.56;;;23.37;38.70
53246;BME280;39569;51.090;-1.786;2023-06-14T02:27:02;100939.66;;;23.44;38.56
53246;BME280;39569;51.090;-1.786;2023-06-14T02:29:28;100945.34;;;23.42;38.13
53246;BME280;39569;51.090;-1.786;2023-06-14T02:31:56;100940.47;;;23.44;38.22
53246;BME280;39569;51.090;-1.786;2023-06-14T02:34:23;100937.94;;;23.37;38.01
53246;BME280;39569;51.090;-1.786;2023-06-14T02:36:50;100931.09;;;23.35;37.99
53246;BME280;39569;51.090;-1.786;2023-06-14T02:39:18;100929.59;;;23.27;38.18
53246;BME280;39569;51.090;-1.786;2023-06-14T02:41:46;100938.94;;;23.31;38.41
53246;BME280;39569;51.090;-1.786;2023-06-14T02:44:13;100932.06;;;23.29;38.69
53246;BME280;39569;51.090;-1.786;2023-06-14T02:46:40;100931.41;;;23.22;38.72
53246;BME280;39569;51.090;-1.786;2023-06-14T02:49:10;100927.75;;;23.11;38.73
53246;BME280;39569;51.090;-1.786;2023-06-14T02:51:37;100932.69;;;22.76;39.34
53246;BME280;39569;51.090;-1.786;2023-06-14T02:54:03;100943.06;;;22.79;39.63
53246;BME280;39569;51.090;-1.786;2023-06-14T02:56:30;100934.88;;;22.79;39.68
53246;BME280;39569;51.090;-1.786;2023-06-14T02:58:57;100942.16;;;22.74;40.32
53246;BME280;39569;51.090;-1.786;2023-06-14T03:01:25;100935.66;;;22.58;40.16
53246;BME280;39569;51.090;-1.786;2023-06-14T03:03:59;100934.25;;;22.56;40.34
53246;BME280;39569;51.090;-1.786;2023-06-14T03:06:27;100931.09;;;22.47;40.18
53246;BME280;39569;51.090;-1.786;2023-06-14T03:08:55;100938.13;;;22.60;39.86
53246;BME280;39569;51.090;-1.786;2023-06-14T03:11:24;100937.91;;;22.49;40.27
53246;BME280;39569;51.090;-1.786;2023-06-14T03:13:51;100934.41;;;22.49;40.38
53246;BME280;39569;51.090;-1.786;2023-06-14T03:16:18;100939.34;;;22.52;40.13
53246;BME280;39569;51.090;-1.786;2023-06-14T03:18:48;100940.75;;;22.55;39.37
53246;BME280;39569;51.090;-1.786;2023-06-14T03:21:14;100937.50;;;22.41;39.82
53246;BME280;39569;51.090;-1.786;2023-06-14T03:23:43;100942.56;;;22.49;39.93
53246;BME280;39569;51.090;-1.786;2023-06-14T03:26:10;100948.69;;;22.56;39.54
53246;BME280;39569;51.090;-1.786;2023-06-14T03:28:38;100950.34;;;22.57;39.51
53246;BME280;39569;51.090;-1.786;2023-06-14T03:31:05;100942.88;;;22.53;39.24
53246;BME280;39569;51.090;-1.786;2023-06-14T03:33:32;100948.16;;;22.42;39.20
53246;BME280;39569;51.090;-1.786;2023-06-14T03:35:59;100946.25;;;22.26;38.98
53246;BME280;39569;51.090;-1.786;2023-06-14T03:38:25;100952.16;;;22.23;39.19
53246;BME280;39569;51.090;-1.786;2023-06-14T03:40:54;100949.63;;;22.33;39.09
53246;BME280;39569;51.090;-1.786;2023-06-14T03:43:20;100951.38;;;22.23;38.86
53246;BME280;39569;51.090;-1.786;2023-06-14T03:45:47;100952.91;;;22.19;38.76
53246;BME280;39569;51.090;-1.786;2023-06-14T03:48:14;100954.78;;;22.02;39.47
53246;BME280;39569;51.090;-1.786;2023-06-14T03:50:41;100961.00;;;21.86;40.04
53246;BME280;39569;51.090;-1.786;2023-06-14T03:53:08;100961.03;;;21.63;39.91
53246;BME280;39569;51.090;-1.786;2023-06-14T03:55:35;100955.34;;;21.64;40.27
53246;BME280;39569;51.090;-1.786;2023-06-14T03:58:04;100960.91;;;21.69;40.02
53246;BME280;39569;51.090;-1.786;2023-06-14T04:00:31;100959.84;;;21.59;40.22
53246;BME280;39569;51.090;-1.786;2023-06-14T04:02:58;100960.34;;;21.56;40.26
53246;BME280;39569;51.090;-1.786;2023-06-14T04:05:25;100970.97;;;21.57;40.27
53246;BME280;39569;51.090;-1.786;2023-06-14T04:07:52;100970.78;;;21.24;39.70
53246;BME280;39569;51.090;-1.786;2023-06-14T04:10:22;100970.56;;;21.25;39.38
53246;BME280;39569;51.090;-1.786;2023-06-14T04:12:49;100973.28;;;21.25;39.49
53246;BME280;39569;51.090;-1.786;2023-06-14T04:15:17;100969.75;;;21.25;39.34
53246;BME280;39569;51.090;-1.786;2023-06-14T04:17:44;100970.78;;;21.24;39.55
53246;BME280;39569;51.090;-1.786;2023-06-14T04:20:11;100969.84;;;21.18;39.58
53246;BME280;39569;51.090;-1.786;2023-06-14T04:22:38;100969.84;;;21.18;39.58
53246;BME280;39569;51.090;-1.786;2023-06-14T04:25:06;100971.25;;;20.98;39.87
53246;BME280;39569;51.090;-1.786;2023-06-14T04:27:33;100969.59;;;20.85;39.98
53246;BME280;39569;51.090;-1.786;2023-06-14T04:30:02;100978.59;;;20.86;39.88
53246;BME280;39569;51.090;-1.786;2023-06-14T04:32:30;100974.69;;;20.82;40.17
53246;BME280;39569;51.090;-1.786;2023-06-14T04:34:59;100977.91;;;21.02;39.85
53246;BME280;39569;51.090;-1.786;2023-06-14T04:37:27;100984.47;;;20.83;40.41
53246;BME280;39569;51.090;-1.786;2023-06-14T04:39:54;100981.06;;;20.87;40.41
53246;BME280;39569;51.090;-1.786;2023-06-14T04:42:21;100978.56;;;20.74;40.59
53246;BME280;39569;51.090;-1.786;2023-06-14T04:44:50;100979.78;;;20.90;40.30
53246;BME280;39569;51.090;-1.786;2023-06-14T04:47:20;100989.06;;;20.94;40.40
53246;BME280;39569;51.090;-1.786;2023-06-14T04:49:48;100986.88;;;21.14;40.27
53246;BME280;39569;51.090;-1.786;2023-06-14T04:52:16;100992.44;;;21.19;40.10
53246;BME280;39569;51.090;-1.786;2023-06-14T04:54:46;100998.81;;;21.24;40.47
53246;BME280;39569;51.090;-1.786;2023-06-14T04:57:13;100999.06;;;21.23;40.36
53246;BME280;39569;51.090;-1.786;2023-06-14T04:59:42;100993.03;;;21.32;40.15
53246;BME280;39569;51.090;-1.786;2023-06-14T05:02:09;100992.91;;;21.16;40.51
53246;BME280;39569;51.090;-1.786;2023-06-14T05:04:37;100996.31;;;21.11;40.76
53246;BME280;39569;51.090;-1.786;2023-06-14T05:07:07;100994.41;;;21.35;40.86
53246;BME280;39569;51.090;-1.786;2023-06-14T05:09:34;100999.13;;;21.51;40.54
53246;BME280;39569;51.090;-1.786;2023-06-14T05:12:01;100996.78;;;21.43;40.87
53246;BME280;39569;51.090;-1.786;2023-06-14T05:14:28;100997.69;;;21.60;40.66
53246;BME280;39569;51.090;-1.786;2023-06-14T05:16:55;100994.22;;;21.25;41.34
53246;BME280;39569;51.090;-1.786;2023-06-14T05:19:22;100995.00;;;21.37;41.14
53246;BME280;39569;51.090;-1.786;2023-06-14T05:21:49;100992.53;;;21.35;41.32
53246;BME280;39569;51.090;-1.786;2023-06-14T05:24:17;100995.91;;;21.66;40.79
53246;BME280;39569;51.090;-1.786;2023-06-14T05:26:44;100992.00;;;21.73;41.15
53246;BME280;39569;51.090;-1.786;2023-06-14T05:29:11;100996.28;;;21.46;41.63
53246;BME280;39569;51.090;-1.786;2023-06-14T05:31:38;100989.06;;;21.51;40.87
53246;BME280;39569;51.090;-1.786;2023-06-14T05:34:05;100987.34;;;21.74;40.88
53246;BME280;39569;51.090;-1.786;2023-06-14T05:36:31;100988.41;;;22.12;40.65
53246;BME280;39569;51.090;-1.786;2023-06-14T05:38:58;100991.00;;;21.91;41.12
53246;BME280;39569;51.090;-1.786;2023-06-14T05:41:27;100987.31;;;22.25;40.39
53246;BME280;39569;51.090;-1.786;2023-06-14T05:43:54;100992.19;;;22.23;40.82
53246;BME280;39569;51.090;-1.786;2023-06-14T05:46:21;100991.44;;;22.27;40.99
53246;BME280;39569;51.090;-1.786;2023-06-14T05:48:50;100991.28;;;22.62;40.45
53246;BME280;39569;51.090;-1.786;2023-06-14T05:51:17;100990.03;;;22.25;40.81
53246;BME280;39569;51.090;-1.786;2023-06-14T05:53:44;100988.47;;;22.29;41.55
53246;BME280;39569;51.090;-1.786;2023-06-14T05:56:11;100997.72;;;22.28;41.43
53246;BME280;39569;51.090;-1.786;2023-06-14T05:58:40;101001.44;;;22.55;41.28
53246;BME280;39569;51.090;-1.786;2023-06-14T06:01:07;100992.19;;;22.68;41.18
53246;BME280;39569;51.090;-1.786;2023-06-14T06:03:33;100999.69;;;22.77;40.83
53246;BME280;39569;51.090;-1.786;2023-06-14T06:06:00;100997.59;;;23.17;40.36
53246;BME280;39569;51.090;-1.786;2023-06-14T06:08:28;100990.16;;;23.13;40.70
53246;BME280;39569;51.090;-1.786;2023-06-14T06:10:55;100993.81;;;23.02;40.78
53246;BME280;39569;51.090;-1.786;2023-06-14T06:13:22;100987.97;;;23.70;39.60
53246;BME280;39569;51.090;-1.786;2023-06-14T06:15:50;100992.47;;;23.37;40.16
53246;BME280;39569;51.090;-1.786;2023-06-14T06:18:17;101001.03;;;23.46;40.31
53246;BME280;39569;51.090;-1.786;2023-06-14T06:20:43;100989.50;;;24.04;39.34
53246;BME280;39569;51.090;-1.786;2023-06-14T06:23:10;100991.66;;;24.02;39.51
53246;BME280;39569;51.090;-1.786;2023-06-14T06:25:37;100996.78;;;23.98;39.80
53246;BME280;39569;51.090;-1.786;2023-06-14T06:28:04;100993.72;;;24.16;39.39
53246;BME280;39569;51.090;-1.786;2023-06-14T06:30:30;100995.03;;;24.35;39.42
53246;BME280;39569;51.090;-1.786;2023-06-14T06:32:59;100995.53;;;24.06;40.15
53246;BME280;39569;51.090;-1.786;2023-06-14T06:35:25;100996.94;;;24.35;39.88
53246;BME280;39569;51.090;-1.786;2023-06-14T06:37:52;100997.22;;;24.65;39.10
53246;BME280;39569;51.090;-1.786;2023-06-14T06:40:19;100994.34;;;24.77;38.97
53246;BME280;39569;51.090;-1.786;2023-06-14T06:42:46;100992.53;;;24.92;38.63
53246;BME280;39569;51.090;-1.786;2023-06-14T06:45:12;100992.75;;;24.54;39.21
53246;BME280;39569;51.090;-1.786;2023-06-14T06:47:39;101002.09;;;24.90;38.66
53246;BME280;39569;51.090;-1.786;2023-06-14T06:50:08;101009.03;;;25.02;38.40
53246;BME280;39569;51.090;-1.786;2023-06-14T06:52:34;101005.00;;;25.15;38.51
53246;BME280;39569;51.090;-1.786;2023-06-14T06:55:01;101002.41;;;24.93;38.44
53246;BME280;39569;51.090;-1.786;2023-06-14T06:57:28;101002.88;;;25.69;37.01
53246;BME280;39569;51.090;-1.786;2023-06-14T06:59:55;100991.66;;;25.75;36.57
53246;BME280;39569;51.090;-1.786;2023-06-14T07:02:22;100994.13;;;25.72;37.02
53246;BME280;39569;51.090;-1.786;2023-06-14T07:04:48;101004.00;;;25.31;37.52
53246;BME280;39569;51.090;-1.786;2023-06-14T07:07:17;101005.88;;;25.25;38.46
53246;BME280;39569;51.090;-1.786;2023-06-14T07:09:44;101008.19;;;25.95;36.48
53246;BME280;39569;51.090;-1.786;2023-06-14T07:12:11;101013.22;;;26.18;36.69
53246;BME280;39569;51.090;-1.786;2023-06-14T07:14:38;101005.81;;;26.29;35.97
53246;BME280;39569;51.090;-1.786;2023-06-14T07:17:05;101008.06;;;26.52;35.26
53246;BME280;39569;51.090;-1.786;2023-06-14T07:19:32;101006.66;;;26.30;35.64
53246;BME280;39569;51.090;-1.786;2023-06-14T07:21:58;101010.84;;;26.77;34.44
53246;BME280;39569;51.090;-1.786;2023-06-14T07:24:27;101003.13;;;27.35;33.54
53246;BME280;39569;51.090;-1.786;2023-06-14T07:26:54;101003.13;;;27.40;32.71
53246;BME280;39569;51.090;-1.786;2023-06-14T07:29:21;101000.84;;;27.62;32.84
53246;BME280;39569;51.090;-1.786;2023-06-14T07:31:48;100999.94;;;27.81;32.75
53246;BME280;39569;51.090;-1.786;2023-06-14T07:34:15;101008.59;;;27.30;33.64
53246;BME280;39569;51.090;-1.786;2023-06-14T07:36:41;101013.56;;;27.23;33.97
53246;BME280;39569;51.090;-1.786;2023-06-14T07:39:09;101003.41;;;27.28;34.53
53246;BME280;39569;51.090;-1.786;2023-06-14T07:41:38;101004.22;;;27.39;33.68
53246;BME280;39569;51.090;-1.786;2023-06-14T07:44:04;101004.81;;;27.99;32.32
53246;BME280;39569;51.090;-1.786;2023-06-14T07:46:31;101000.44;;;28.47;32.41
53246;BME280;39569;51.090;-1.786;2023-06-14T07:49:00;101009.19;;;28.54;32.33
53246;BME280;39569;51.090;-1.786;2023-06-14T07:51:26;101006.97;;;28.51;32.51
53246;BME280;39569;51.090;-1.786;2023-06-14T07:53:53;101009.16;;;28.16;32.00
53246;BME280;39569;51.090;-1.786;2023-06-14T07:56:20;101012.13;;;28.96;30.80
53246;BME280;39569;51.090;-1.786;2023-06-14T07:58:48;101004.25;;;29.19;30.30
53246;BME280;39569;51.090;-1.786;2023-06-14T08:01:15;101011.31;;;28.96;31.63
53246;BME280;39569;51.090;-1.786;2023-06-14T08:03:42;101007.38;;;28.73;31.28
53246;BME280;39569;51.090;-1.786;2023-06-14T08:06:09;101007.69;;;29.34;29.62
53246;BME280;39569;51.090;-1.786;2023-06-14T08:08:36;101010.91;;;29.41;30.42
53246;BME280;39569;51.090;-1.786;2023-06-14T08:11:02;101014.13;;;29.72;29.78
53246;BME280;39569;51.090;-1.786;2023-06-14T08:13:29;101007.81;;;30.14;30.02
53246;BME280;39569;51.090;-1.786;2023-06-14T08:15:57;101003.16;;;29.67;30.49
53246;BME280;39569;51.090;-1.786;2023-06-14T08:18:26;101002.34;;;29.66;30.78
53246;BME280;39569;51.090;-1.786;2023-06-14T08:20:53;101004.22;;;30.13;30.23
53246;BME280;39569;51.090;-1.786;2023-06-14T08:23:20;100999.81;;;30.68;29.49
53246;BME280;39569;51.090;-1.786;2023-06-14T08:25:47;101006.25;;;30.63;29.13
53246;BME280;39569;51.090;-1.786;2023-06-14T08:28:14;101006.09;;;31.06;28.28
53246;BME280;39569;51.090;-1.786;2023-06-14T08:30:41;101005.91;;;31.02;28.04
53246;BME280;39569;51.090;-1.786;2023-06-14T08:33:10;100993.81;;;30.98;28.43
53246;BME280;39569;51.090;-1.786;2023-06-14T08:35:36;101002.53;;;31.51;27.84
53246;BME280;39569;51.090;-1.786;2023-06-14T08:38:05;100991.53;;;32.49;26.01
53246;BME280;39569;51.090;-1.786;2023-06-14T08:40:36;100989.16;;;32.21;27.37
53246;BME280;39569;51.090;-1.786;2023-06-14T08:43:03;100994.59;;;32.92;26.17
53246;BME280;39569;51.090;-1.786;2023-06-14T08:45:31;100996.28;;;33.54;25.80
53246;BME280;39569;51.090;-1.786;2023-06-14T08:47:58;100999.50;;;33.48;25.46
53246;BME280;39569;51.090;-1.786;2023-06-14T08:50:26;100999.06;;;33.71;25.21
53246;BME280;39569;51.090;-1.786;2023-06-14T08:52:55;100996.63;;;33.70;25.11
53246;BME280;39569;51.090;-1.786;2023-06-14T08:55:26;101008.75;;;32.91;25.46
53246;BME280;39569;51.090;-1.786;2023-06-14T08:57:55;101002.94;;;33.23;25.49
53246;BME280;39569;51.090;-1.786;2023-06-14T09:00:23;101003.34;;;33.38;25.12
53246;BME280;39569;51.090;-1.786;2023-06-14T09:02:53;101002.03;;;33.75;23.86
53246;BME280;39569;51.090;-1.786;2023-06-14T09:05:23;101002.88;;;33.84;24.16
53246;BME280;39569;51.090;-1.786;2023-06-14T09:07:52;101003.44;;;33.64;24.32
53246;BME280;39569;51.090;-1.786;2023-06-14T09:10:21;101003.78;;;34.19;23.19
53246;BME280;39569;51.090;-1.786;2023-06-14T09:12:48;100998.38;;;33.97;25.63
53246;BME280;39569;51.090;-1.786;2023-06-14T09:15:15;101000.84;;;34.15;24.81
53246;BME280;39569;51.090;-1.786;2023-06-14T09:17:42;100997.41;;;34.44;24.25
53246;BME280;39569;51.090;-1.786;2023-06-14T09:20:09;101007.72;;;34.43;24.33
53246;BME280;39569;51.090;-1.786;2023-06-14T09:22:39;101008.09;;;33.86;23.96
53246;BME280;39569;51.090;-1.786;2023-06-14T09:25:09;101006.06;;;34.34;24.59
53246;BME280;39569;51.090;-1.786;2023-06-14T09:27:36;101009.88;;;35.27;24.41
53246;BME280;39569;51.090;-1.786;2023-06-14T09:30:06;101005.69;;;35.21;22.65
53246;BME280;39569;51.090;-1.786;2023-06-14T09:32:37;100999.41;;;34.52;24.87
53246;BME280;39569;51.090;-1.786;2023-06-14T09:35:05;100999.91;;;34.54;23.11
53246;BME280;39569;51.090;-1.786;2023-06-14T09:37:32;100999.00;;;35.05;22.50
53246;BME280;39569;51.090;-1.786;2023-06-14T09:39:59;100993.94;;;35.62;23.13
53246;BME280;39569;51.090;-1.786;2023-06-14T09:42:28;100993.63;;;36.13;22.66
53246;BME280;39569;51.090;-1.786;2023-06-14T09:44:56;100996.28;;;36.50;22.27
53246;BME280;39569;51.090;-1.786;2023-06-14T09:47:23;100994.84;;;36.98;20.95
53246;BME280;39569;51.090;-1.786;2023-06-14T09:49:51;101003.56;;;36.96;21.74
53246;BME280;39569;51.090;-1.786;2023-06-14T09:52:21;100999.72;;;36.89;22.56
53246;BME280;39569;51.090;-1.786;2023-06-14T09:54:48;100992.66;;;36.71;22.01
53246;BME280;39569;51.090;-1.786;2023-06-14T09:57:16;100991.69;;;37.44;21.39
53246;BME280;39569;51.090;-1.786;2023-06-14T09:59:47;100986.25;;;36.91;23.32
53246;BME280;39569;51.090;-1.786;2023-06-14T10:02:22;100992.63;;;37.72;21.92
53246;BME280;39569;51.090;-1.786;2023-06-14T10:04:56;100986.94;;;37.81;20.62
53246;BME280;39569;51.090;-1.786;2023-06-14T10:07:26;100992.75;;;37.39;21.36
53246;BME280;39569;51.090;-1.786;2023-06-14T10:09:55;100988.78;;;37.28;22.27
53246;BME280;39569;51.090;-1.786;2023-06-14T10:12:22;100989.16;;;37.75;22.48
53246;BME280;39569;51.090;-1.786;2023-06-14T10:14:51;100997.84;;;38.22;20.34
53246;BME280;39569;51.090;-1.786;2023-06-14T10:17:27;100993.75;;;38.31;19.72
53246;BME280;39569;51.090;-1.786;2023-06-14T10:20:10;100984.81;;;38.54;20.35
53246;BME280;39569;51.090;-1.786;2023-06-14T10:22:45;100989.97;;;37.39;21.94
53246;BME280;39569;51.090;-1.786;2023-06-14T10:25:26;100982.88;;;38.02;20.78
53246;BME280;39569;51.090;-1.786;2023-06-14T10:28:03;100995.41;;;38.20;21.02
53246;BME280;39569;51.090;-1.786;2023-06-14T10:30:32;100987.72;;;38.17;20.77
53246;BME280;39569;51.090;-1.786;2023-06-14T10:33:05;100996.47;;;38.04;20.57
53246;BME280;39569;51.090;-1.786;2023-06-14T10:35:33;100995.16;;;38.13;21.32
53246;BME280;39569;51.090;-1.786;2023-06-14T10:38:09;100978.00;;;38.39;21.18
53246;BME280;39569;51.090;-1.786;2023-06-14T10:40:36;100989.22;;;38.27;21.53
53246;BME280;39569;51.090;-1.786;2023-06-14T10:43:21;100988.34;;;38.38;22.96
53246;BME280;39569;51.090;-1.786;2023-06-14T10:46:16;100985.16;;;39.07;21.07
53246;BME280;39569;51.090;-1.786;2023-06-14T10:48:44;100994.13;;;38.85;20.18
53246;BME280;39569;51.090;-1.786;2023-06-14T10:51:18;100983.13;;;38.92;20.29
53246;BME280;39569;51.090;-1.786;2023-06-14T10:53:47;100985.34;;;39.14;20.59
53246;BME280;39569;51.090;-1.786;2023-06-14T10:56:26;100984.63;;;39.49;20.97
53246;BME280;39569;51.090;-1.786;2023-06-14T10:58:53;100987.53;;;39.52;20.06
53246;BME280;39569;51.090;-1.786;2023-06-14T11:01:35;100992.78;;;39.54;20.47
53246;BME280;39569;51.090;-1.786;2023-06-14T11:04:12;100989.13;;;39.69;19.60
53246;BME280;39569;51.090;-1.786;2023-06-14T11:06:46;100989.31;;;39.60;20.41
53246;BME280;39569;51.090;-1.786;2023-06-14T11:09:38;100988.75;;;39.86;19.55
53246;BME280;39569;51.090;-1.786;2023-06-14T11:12:15;100978.56;;;39.93;19.73
53246;BME280;39569;51.090;-1.786;2023-06-14T11:14:42;100983.09;;;40.17;19.35
53246;BME280;39569;51.090;-1.786;2023-06-14T11:17:13;100987.75;;;40.29;19.81
53246;BME280;39569;51.090;-1.786;2023-06-14T11:19:40;100976.94;;;39.92;20.41
53246;BME280;39569;51.090;-1.786;2023-06-14T11:22:07;100968.50;;;40.46;20.33
53246;BME280;39569;51.090;-1.786;2023-06-14T11:24:34;100965.66;;;40.43;21.26
53246;BME280;39569;51.090;-1.786;2023-06-14T11:27:01;100970.50;;;40.65;19.31
53246;BME280;39569;51.090;-1.786;2023-06-14T11:29:29;100956.09;;;40.66;18.43
53246;BME280;39569;51.090;-1.786;2023-06-14T11:31:57;100960.78;;;40.40;20.13
53246;BME280;39569;51.090;-1.786;2023-06-14T11:34:25;100965.59;;;40.23;20.33
53246;BME280;39569;51.090;-1.786;2023-06-14T11:36:52;100961.50;;;40.37;20.22
53246;BME280;39569;51.090;-1.786;2023-06-14T11:39:24;100958.47;;;41.06;19.76
53246;BME280;39569;51.090;-1.786;2023-06-14T11:41:52;100951.13;;;40.98;20.71
53246;BME280;39569;51.090;-1.786;2023-06-14T11:44:20;100955.09;;;40.55;19.79
53246;BME280;39569;51.090;-1.786;2023-06-14T11:46:47;100959.72;;;40.86;19.96
53246;BME280;39569;51.090;-1.786;2023-06-14T11:49:14;100960.41;;;40.41;20.20
53246;BME280;39569;51.090;-1.786;2023-06-14T11:51:42;100956.72;;;40.37;20.02
53246;BME280;39569;51.090;-1.786;2023-06-14T11:54:10;100957.06;;;40.55;19.84
53246;BME280;39569;51.090;-1.786;2023-06-14T11:56:37;100961.94;;;40.58;20.54
53246;BME280;39569;51.090;-1.786;2023-06-14T11:59:04;100953.34;;;40.47;20.69
53246;BME280;39569;51.090;-1.786;2023-06-14T12:01:31;100949.91;;;40.57;20.47
53246;BME280;39569;51.090;-1.786;2023-06-14T12:03:59;100957.53;;;39.84;20.75
53246;BME280;39569;51.090;-1.786;2023-06-14T12:06:26;100952.25;;;40.93;19.52
53246;BME280;39569;51.090;-1.786;2023-06-14T12:08:59;100957.66;;;40.26;20.10
53246;BME280;39569;51.090;-1.786;2023-06-14T12:11:32;100959.88;;;39.82;22.11
53246;BME280;39569;51.090;-1.786;2023-06-14T12:14:00;100965.34;;;40.48;21.67
53246;BME280;39569;51.090;-1.786;2023-06-14T12:16:31;100956.47;;;40.07;20.37
53246;BME280;39569;51.090;-1.786;2023-06-14T12:19:01;100962.28;;;40.94;19.81
53246;BME280;39569;51.090;-1.786;2023-06-14T12:21:28;100955.25;;;39.89;20.39
53246;BME280;39569;51.090;-1.786;2023-06-14T12:23:55;100956.03;;;40.44;20.67
53246;BME280;39569;51.090;-1.786;2023-06-14T12:26:24;100951.97;;;40.22;19.78
53246;BME280;39569;51.090;-1.786;2023-06-14T12:28:52;100952.78;;;40.03;20.17
53246;BME280;39569;51.090;-1.786;2023-06-14T12:31:19;100955.53;;;40.57;20.99
53246;BME280;39569;51.090;-1.786;2023-06-14T12:33:46;100948.16;;;40.49;20.52
53246;BME280;39569;51.090;-1.786;2023-06-14T12:36:14;100947.50;;;40.17;20.70
53246;BME280;39569;51.090;-1.786;2023-06-14T12:38:42;100951.16;;;40.02;21.20
53246;BME280;39569;51.090;-1.786;2023-06-14T12:41:09;100949.88;;;39.65;20.21
53246;BME280;39569;51.090;-1.786;2023-06-14T12:43:37;100944.16;;;40.31;19.96
53246;BME280;39569;51.090;-1.786;2023-06-14T12:46:04;100938.06;;;40.64;20.37